createdAt,value
2018-07-22T00:01:59.593Z,22.30
2018-07-22T00:04:39.382Z,22.30
2018-07-22T00:07:18.212Z,22.20
2018-07-22T00:09:47.753Z,22.20
2018-07-22T00:12:18.198Z,22.20
2018-07-22T00:14:55.352Z,22.10
2018-07-22T00:17:26.072Z,22.20
2018-07-22T00:20:04.914Z,22.00
2018-07-22T00:22:39.275Z,21.90
2018-07-22T00:25:14.672Z,21.90
2018-07-22T00:27:54.612Z,21.90
2018-07-22T00:30:34.092Z,21.90
2018-07-22T00:33:12.054Z,21.80
2018-07-22T00:35:51.315Z,21.80
2018-07-22T00:38:32.521Z,21.90
2018-07-22T00:41:11.161Z,21.80
2018-07-22T00:43:48.697Z,21.80
2018-07-22T00:46:33.756Z,21.70
2018-07-22T00:49:05.582Z,21.60
2018-07-22T00:51:45.777Z,21.50
2018-07-22T00:54:25.770Z,21.50
2018-07-22T00:57:05.853Z,21.50
2018-07-22T00:59:38.063Z,21.50
2018-07-22T01:02:31.139Z,21.60
2018-07-22T01:05:03.289Z,21.50
2018-07-22T01:07:44.686Z,21.40
2018-07-22T01:10:33.364Z,21.40
2018-07-22T01:13:03.041Z,21.40
2018-07-22T01:15:34.545Z,21.30
2018-07-22T01:18:08.244Z,21.20
2018-07-22T01:20:37.422Z,21.20
2018-07-22T01:23:23.293Z,21.10
2018-07-22T01:28:53.188Z,20.80
2018-07-22T01:31:26.299Z,20.60
2018-07-22T01:33:57.988Z,20.50
2018-07-22T01:36:28.652Z,20.50
2018-07-22T01:38:58.464Z,20.50
2018-07-22T01:41:28.147Z,20.60
2018-07-22T01:43:57.326Z,20.60
2018-07-22T01:46:32.018Z,20.40
2018-07-22T01:49:01.836Z,20.20
2018-07-22T01:51:31.184Z,20.00
2018-07-22T01:54:00.489Z,20.00
2018-07-22T01:56:45.185Z,20.00
2018-07-22T01:59:33.716Z,20.10
2018-07-22T02:02:03.187Z,20.20
2018-07-22T02:04:33.293Z,20.10
2018-07-22T02:07:02.939Z,20.00
2018-07-22T02:09:32.967Z,20.10
2018-07-22T02:12:02.019Z,20.10
2018-07-22T02:14:31.148Z,20.20
2018-07-22T02:17:05.191Z,20.30
2018-07-22T02:19:34.401Z,20.30
2018-07-22T02:22:04.253Z,20.30
2018-07-22T02:24:33.423Z,20.30
2018-07-22T02:27:03.382Z,20.30
2018-07-22T02:29:47.657Z,20.40
2018-07-22T02:32:26.809Z,20.40
2018-07-22T02:34:55.981Z,20.30
2018-07-22T02:37:25.317Z,20.20
2018-07-22T02:39:55.604Z,20.10
2018-07-22T02:42:24.961Z,20.20
2018-07-22T02:44:54.089Z,20.10
2018-07-22T02:47:23.478Z,20.10
2018-07-22T02:52:33.178Z,20.20
2018-07-22T02:55:02.523Z,20.30
2018-07-22T02:57:49.221Z,20.20
2018-07-22T03:00:35.702Z,20.20
2018-07-22T03:03:08.072Z,20.20
2018-07-22T03:05:39.364Z,20.10
2018-07-22T03:08:08.367Z,20.10
2018-07-22T03:10:39.338Z,20.10
2018-07-22T03:13:09.064Z,20.10
2018-07-22T03:15:38.720Z,20.00
2018-07-22T03:18:10.259Z,19.90
2018-07-22T03:20:40.219Z,20.00
2018-07-22T03:23:09.605Z,20.00
2018-07-22T03:25:51.672Z,20.00
2018-07-22T03:28:32.961Z,19.90
2018-07-22T03:31:04.748Z,19.90
2018-07-22T03:33:33.703Z,19.80
2018-07-22T03:36:04.188Z,20.00
2018-07-22T03:38:33.157Z,20.00
2018-07-22T03:41:04.021Z,20.00
2018-07-22T03:43:34.059Z,20.00
2018-07-22T03:46:04.108Z,19.90
2018-07-22T03:48:33.223Z,19.80
2018-07-22T03:51:02.800Z,19.70
2018-07-22T03:53:32.202Z,19.70
2018-07-22T03:56:01.624Z,19.80
2018-07-22T03:58:30.543Z,19.70
2018-07-22T04:00:59.477Z,19.60
2018-07-22T04:03:39.145Z,19.60
2018-07-22T04:06:08.629Z,19.60
2018-07-22T04:08:40.034Z,19.50
2018-07-22T04:11:12.222Z,19.40
2018-07-22T04:13:41.722Z,19.40
2018-07-22T04:16:11.149Z,19.40
2018-07-22T04:18:45.648Z,19.40
2018-07-22T04:21:14.921Z,19.40
2018-07-22T04:23:44.281Z,19.30
2018-07-22T04:26:13.187Z,19.40
2018-07-22T04:28:42.213Z,19.40
2018-07-22T04:31:11.566Z,19.40
2018-07-22T04:33:40.807Z,19.30
2018-07-22T04:36:10.234Z,19.20
2018-07-22T04:38:39.209Z,19.30
2018-07-22T04:41:08.125Z,19.20
2018-07-22T04:43:37.198Z,19.10
2018-07-22T04:46:06.191Z,19.00
2018-07-22T04:48:35.995Z,19.00
2018-07-22T04:51:05.751Z,19.00
2018-07-22T04:53:34.825Z,19.00
2018-07-22T04:58:33.128Z,18.90
2018-07-22T05:01:02.313Z,19.00
2018-07-22T05:06:01.198Z,19.20
2018-07-22T05:08:30.208Z,18.90
2018-07-22T05:10:59.213Z,18.90
2018-07-22T05:13:28.519Z,19.00
2018-07-22T05:15:57.835Z,19.00
2018-07-22T05:18:29.717Z,19.10
2018-07-22T05:21:17.079Z,19.20
2018-07-22T05:26:27.459Z,19.30
2018-07-22T05:31:27.179Z,19.30
2018-07-22T05:33:56.812Z,19.30
2018-07-22T05:38:54.825Z,19.30
2018-07-22T05:41:26.643Z,19.30
2018-07-22T05:46:24.316Z,19.30
2018-07-22T05:48:54.204Z,19.40
2018-07-22T05:51:23.784Z,19.50
2018-07-22T05:53:53.692Z,19.50
2018-07-22T05:56:22.674Z,19.50
2018-07-22T05:58:51.634Z,19.40
2018-07-22T06:01:20.836Z,19.40
2018-07-22T06:03:50.439Z,19.30
2018-07-22T06:06:19.644Z,19.30
2018-07-22T06:08:50.702Z,19.40
2018-07-22T06:13:50.200Z,19.70
2018-07-22T06:16:19.241Z,19.90
2018-07-22T06:18:48.727Z,20.00
2018-07-22T06:21:19.257Z,19.80
2018-07-22T06:23:48.741Z,19.70
2018-07-22T06:26:17.762Z,20.00
2018-07-22T06:28:47.241Z,20.40
2018-07-22T06:31:17.644Z,20.60
2018-07-22T06:33:47.204Z,20.80
2018-07-22T06:36:16.268Z,21.00
2018-07-22T06:38:45.228Z,21.40
2018-07-22T06:41:14.263Z,22.20
2018-07-22T06:43:43.260Z,22.60
2018-07-22T06:46:12.735Z,22.40
2018-07-22T06:48:42.424Z,22.00
2018-07-22T06:51:11.250Z,22.10
2018-07-22T06:56:21.521Z,23.50
2018-07-22T06:58:51.199Z,23.50
2018-07-22T07:01:21.847Z,23.80
2018-07-22T07:03:51.085Z,23.10
2018-07-22T07:06:20.691Z,23.10
2018-07-22T07:08:52.669Z,22.90
2018-07-22T07:13:50.470Z,21.40
2018-07-22T07:16:19.732Z,21.20
2018-07-22T07:18:50.164Z,21.10
2018-07-22T07:21:19.376Z,21.20
2018-07-22T07:23:49.078Z,21.50
2018-07-22T07:26:18.286Z,21.90
2018-07-22T07:28:47.283Z,22.20
2018-07-22T07:31:20.083Z,22.20
2018-07-22T07:33:50.352Z,22.30
2018-07-22T07:36:24.728Z,22.60
2018-07-22T07:38:53.660Z,22.60
2018-07-22T07:41:22.716Z,22.50
2018-07-22T07:43:51.749Z,22.50
2018-07-22T07:46:20.757Z,22.60
2018-07-22T07:48:49.840Z,23.10
2018-07-22T07:51:19.511Z,24.40
2018-07-22T07:53:48.493Z,24.40
2018-07-22T07:56:17.468Z,23.30
2018-07-22T07:58:46.490Z,23.10
2018-07-22T08:01:15.751Z,23.40
2018-07-22T08:03:45.048Z,23.80
2018-07-22T08:06:25.696Z,24.20
2018-07-22T08:09:03.740Z,25.30
2018-07-22T08:11:45.847Z,27.10
2018-07-22T08:14:15.445Z,27.30
2018-07-22T08:16:44.529Z,26.80
2018-07-22T08:19:15.324Z,26.80
2018-07-22T08:21:45.728Z,25.90
2018-07-22T08:24:15.710Z,26.50
2018-07-22T08:26:44.773Z,26.40
2018-07-22T08:29:27.960Z,26.40
2018-07-22T08:31:57.234Z,27.40
2018-07-22T08:36:56.655Z,27.60
2018-07-22T08:39:32.278Z,27.10
2018-07-22T08:42:03.751Z,27.30
2018-07-22T08:44:32.750Z,27.70
2018-07-22T08:47:02.555Z,27.70
2018-07-22T08:49:32.716Z,27.10
2018-07-22T08:52:04.261Z,26.60
2018-07-22T08:54:33.343Z,28.10
2018-07-22T08:57:02.404Z,28.90
2018-07-22T08:59:32.140Z,28.10
2018-07-22T09:02:01.648Z,27.40
2018-07-22T09:04:31.512Z,27.70
2018-07-22T09:07:01.081Z,27.70
2018-07-22T09:09:30.314Z,29.10
2018-07-22T09:12:00.952Z,30.30
2018-07-22T09:14:30.185Z,31.60
2018-07-22T09:17:00.241Z,32.00
2018-07-22T09:21:58.209Z,31.10
2018-07-22T09:24:27.877Z,31.10
2018-07-22T09:26:57.260Z,32.20
2018-07-22T09:29:40.764Z,32.60
2018-07-22T09:34:52.148Z,31.20
2018-07-22T09:37:23.418Z,32.30
2018-07-22T09:39:53.083Z,32.10
2018-07-22T09:42:23.023Z,32.30
2018-07-22T09:44:58.920Z,33.00
2018-07-22T09:47:27.952Z,33.70
2018-07-22T09:49:57.262Z,34.40
2018-07-22T09:52:28.218Z,34.60
2018-07-22T09:54:59.875Z,33.70
2018-07-22T09:57:29.833Z,33.80
2018-07-22T10:00:13.722Z,34.40
2018-07-22T10:02:43.598Z,35.20
2018-07-22T10:05:18.007Z,35.60
2018-07-22T10:07:52.009Z,35.80
2018-07-22T10:10:21.506Z,34.10
2018-07-22T10:12:53.048Z,33.80
2018-07-22T10:15:22.126Z,34.20
2018-07-22T10:17:51.582Z,34.50
2018-07-22T10:20:23.238Z,34.00
2018-07-22T10:22:53.416Z,34.80
2018-07-22T10:25:23.274Z,33.40
2018-07-22T10:27:53.871Z,33.90
2018-07-22T10:30:24.203Z,33.70
2018-07-22T10:32:54.769Z,34.00
2018-07-22T10:35:29.672Z,32.70
2018-07-22T10:38:00.290Z,33.10
2018-07-22T10:40:30.181Z,34.00
2018-07-22T10:43:01.422Z,34.40
2018-07-22T10:45:36.966Z,35.50
2018-07-22T10:53:10.385Z,35.60
2018-07-22T10:55:42.054Z,34.80
2018-07-22T10:58:11.137Z,34.00
2018-07-22T11:00:42.209Z,35.00
2018-07-22T11:03:16.540Z,34.70
2018-07-22T11:05:46.245Z,34.50
2018-07-22T11:11:01.796Z,37.20
2018-07-22T11:13:33.477Z,37.70
2018-07-22T11:16:09.230Z,36.20
2018-07-22T11:18:38.790Z,36.00
2018-07-22T11:21:09.810Z,35.80
2018-07-22T11:23:40.709Z,35.50
2018-07-22T11:28:40.063Z,37.90
2018-07-22T11:31:16.067Z,36.50
2018-07-22T11:33:47.406Z,36.30
2018-07-22T11:36:19.308Z,36.40
2018-07-22T11:38:54.903Z,37.00
2018-07-22T11:41:28.132Z,36.40
2018-07-22T11:44:01.460Z,35.20
2018-07-22T11:46:36.493Z,35.60
2018-07-22T11:49:13.527Z,36.60
2018-07-22T11:51:45.231Z,37.20
2018-07-22T11:54:15.318Z,38.10
2018-07-22T11:56:46.330Z,38.30
2018-07-22T11:59:18.553Z,39.00
2018-07-22T12:01:49.228Z,38.00
2018-07-22T12:04:21.637Z,37.30
2018-07-22T12:06:56.462Z,36.90
2018-07-22T12:09:31.394Z,36.50
2018-07-22T12:12:02.478Z,36.40
2018-07-22T12:14:45.845Z,37.40
2018-07-22T12:17:27.462Z,37.40
2018-07-22T12:20:01.443Z,35.10
2018-07-22T12:22:33.401Z,34.90
2018-07-22T12:25:06.631Z,35.40
2018-07-22T12:30:08.638Z,36.00
2018-07-22T12:32:49.984Z,36.50
2018-07-22T12:35:24.586Z,35.70
2018-07-22T12:37:55.385Z,35.90
2018-07-22T12:45:29.677Z,35.40
2018-07-22T12:48:03.321Z,34.70
2018-07-22T12:50:36.497Z,34.40
2018-07-22T12:53:06.314Z,34.40
2018-07-22T12:55:40.017Z,33.00
2018-07-22T12:58:25.638Z,33.00
2018-07-22T13:01:09.550Z,33.00
2018-07-22T13:03:40.177Z,33.20
2018-07-22T13:06:09.350Z,34.40
2018-07-22T13:08:41.314Z,35.40
2018-07-22T13:11:11.470Z,35.30
2018-07-22T13:13:41.614Z,33.50
2018-07-22T13:16:11.640Z,32.90
2018-07-22T19:20:54.309Z,27.00
2018-07-22T19:23:47.608Z,26.90
2018-07-22T19:26:24.439Z,27.00
2018-07-22T19:29:00.746Z,27.00
2018-07-22T19:31:34.247Z,26.90
2018-07-22T19:37:32.306Z,27.00
2018-07-22T19:40:27.921Z,27.10
2018-07-22T19:43:03.230Z,27.30
2018-07-22T19:45:46.828Z,27.20
2018-07-22T19:48:47.443Z,27.10
2018-07-22T19:54:12.766Z,27.10
2018-07-22T19:56:50.450Z,27.20
2018-07-22T19:59:26.975Z,27.30
2018-07-22T20:02:08.461Z,27.30
2018-07-22T20:04:44.998Z,27.30
2018-07-22T20:07:18.123Z,27.20
2018-07-22T20:10:02.992Z,27.40
2018-07-22T20:12:34.614Z,27.50
2018-07-22T20:15:13.907Z,27.60
2018-07-22T20:17:50.845Z,27.70
2018-07-22T20:20:25.617Z,27.70
2018-07-22T20:23:37.397Z,27.70
2018-07-22T20:26:18.711Z,27.70
2018-07-22T20:29:15.697Z,27.60
2018-07-22T20:32:39.821Z,27.60
2018-07-22T20:35:44.622Z,27.50
2018-07-22T20:38:19.282Z,27.50
2018-07-22T20:40:57.702Z,27.50
2018-07-22T20:43:29.180Z,27.50
2018-07-22T20:45:59.954Z,27.50
2018-07-22T20:48:35.100Z,27.50
2018-07-22T20:51:14.292Z,27.50
2018-07-22T20:53:56.112Z,27.60
2018-07-22T20:56:32.713Z,27.50
2018-07-22T20:59:05.170Z,27.10
2018-07-22T21:05:10.627Z,26.70
2018-07-22T21:08:03.845Z,26.30
2018-07-22T21:10:41.394Z,26.20
2018-07-22T21:13:28.590Z,26.00
2018-07-22T21:16:17.147Z,25.90
2018-07-22T21:19:01.099Z,25.90
2018-07-22T21:25:05.107Z,25.80
2018-07-22T21:27:38.817Z,25.60
2018-07-22T21:30:35.346Z,25.60
2018-07-22T21:33:13.043Z,25.50
2018-07-22T21:35:51.286Z,25.20
2018-07-22T21:38:24.268Z,25.00
2018-07-22T21:40:56.683Z,25.00
2018-07-22T21:43:32.438Z,25.00
2018-07-22T21:46:27.492Z,24.90
2018-07-22T21:48:59.719Z,24.90
2018-07-22T21:51:40.330Z,24.90
2018-07-22T21:54:27.448Z,24.90
2018-07-22T21:57:09.099Z,25.00
2018-07-22T21:59:42.285Z,24.80
2018-07-22T22:02:12.415Z,24.70
2018-07-22T22:05:00.199Z,24.60
2018-07-22T22:07:35.604Z,24.40
2018-07-22T22:10:11.626Z,24.30
2018-07-22T22:15:46.625Z,24.00
2018-07-22T22:18:30.525Z,23.90
2018-07-22T22:21:20.087Z,23.90
2018-07-22T22:24:04.773Z,23.90
2018-07-22T22:26:41.713Z,23.90
2018-07-22T22:29:19.852Z,23.90
2018-07-22T22:31:57.973Z,23.80
2018-07-22T22:34:37.938Z,23.70
2018-07-22T22:37:12.136Z,23.70
2018-07-22T22:39:48.930Z,23.70
2018-07-22T22:42:20.912Z,23.70
2018-07-22T22:44:52.292Z,23.60
2018-07-22T22:49:54.191Z,23.50
2018-07-22T22:52:30.633Z,23.50
2018-07-22T22:55:03.351Z,23.50
2018-07-22T22:57:34.263Z,23.50
2018-07-22T23:00:05.080Z,23.40
2018-07-22T23:02:37.570Z,23.40
2018-07-22T23:05:08.808Z,23.30
2018-07-22T23:07:38.857Z,23.20
2018-07-22T23:10:14.305Z,23.20
2018-07-22T23:15:16.294Z,23.10
2018-07-22T23:17:49.227Z,23.00
2018-07-22T23:20:18.950Z,23.00
2018-07-22T23:22:49.329Z,22.90
2018-07-22T23:25:18.730Z,22.90
2018-07-22T23:28:02.326Z,22.90
2018-07-22T23:30:50.690Z,22.80
2018-07-22T23:36:52.806Z,22.60
2018-07-22T23:39:44.822Z,22.60
2018-07-22T23:42:19.301Z,22.60
2018-07-22T23:44:49.869Z,22.60
2018-07-22T23:47:20.932Z,22.60
2018-07-22T23:49:54.737Z,22.50
2018-07-22T23:52:25.316Z,22.50
2018-07-22T23:54:56.274Z,22.60
2018-07-22T23:57:31.251Z,22.50
